»·PEaware :: N416JK KTEX-KPUC

N416JK :: KTEX-KPUC

FLIGHT INFORMATION

Flight Status: Arrived
Operator: Privately registered:
United States
More flights under this callsign
Pilot: John K. (4202)
Aircraft: PIPER PA-46-310/350P MALIBU MIRAGE
(PA46)
More flights by this aircraft type
Origin: KTEX Telluride Regl
United States
Destination: KPUC Carbon Co
United States
More flights between these airports :: More routes between these airports
Route: ETL V382 ECNOF V382 JNC V134 COPUK
File this flight plan on PilotEdge
Remarks:
Altitude:
(Current/Filed)
14,000ft
Speed:
(Current/Filed)
180kts
Departed: 17-Feb-23 09:29 AM
Arrived: 17-Feb-23 10:52 AM
Distance/Time
Traveled:
166nm/1:22
Distance/Time
To Go:
Arrived

Flight Plot

Page will automatically refresh every two minutes.

Flight plan parsing failed; only flown route is shown


Map Options




Map Legend


Flown Route
Filed Route
Departure Airport
Arrival Airport
Navaid (VOR, NDB)
Fix

Horizontal Profiles

Position Reports

Time Latitude Longitude Heading Altitude Ground
Speed
17-Feb-23 09:20 37.953997 -107.900985 196 9066ft 0kts
17-Feb-23 09:21 37.953997 -107.900985 196 9066ft 0kts
17-Feb-23 09:22 37.953997 -107.900985 196 9066ft 0kts
17-Feb-23 09:23 37.953997 -107.900985 196 9066ft 0kts
17-Feb-23 09:24 37.952681 -107.897719 99 9075ft 14kts
17-Feb-23 09:25 37.952459 -107.896905 121 9077ft 0kts
17-Feb-23 09:26 37.952420 -107.896830 124 9077ft 0kts
17-Feb-23 09:27 37.952420 -107.896830 124 9077ft 0kts
17-Feb-23 09:28 37.953424 -107.906351 290 9112ft 92kts
17-Feb-23 09:29 37.957247 -107.944895 270 10193ft 136kts
17-Feb-23 09:30 37.964007 -107.998746 275 11151ft 166kts
17-Feb-23 09:31 37.975514 -108.054683 279 12052ft 165kts
17-Feb-23 09:32 37.988243 -108.109230 285 12964ft 157kts
17-Feb-23 09:39 37.953990 -107.900987 196 9066ft 0kts
17-Feb-23 09:40 37.953990 -107.900987 196 9066ft 0kts
17-Feb-23 09:41 37.953990 -107.900987 196 9066ft 0kts
17-Feb-23 09:42 37.952392 -107.896827 127 9077ft 12kts
17-Feb-23 09:43 37.951447 -107.897056 250 9068ft 14kts
17-Feb-23 09:44 37.957209 -107.923696 285 9306ft 117kts
17-Feb-23 09:45 37.966543 -107.967487 284 10161ft 138kts
17-Feb-23 09:46 37.980358 -108.015874 287 10998ft 156kts
17-Feb-23 09:47 37.994197 -108.071223 286 11828ft 172kts
17-Feb-23 09:48 38.008813 -108.130333 286 12640ft 178kts
17-Feb-23 09:49 38.023732 -108.190824 286 13445ft 181kts
17-Feb-23 09:50 38.040336 -108.251830 309 13999ft 195kts
17-Feb-23 09:51 38.091492 -108.285016 336 14002ft 215kts
17-Feb-23 09:52 38.147240 -108.313840 337 13999ft 217kts
17-Feb-23 09:53 38.203056 -108.342750 337 13999ft 217kts
17-Feb-23 09:54 38.258919 -108.371683 336 13987ft 217kts
17-Feb-23 09:55 38.314842 -108.400604 336 13953ft 215kts
17-Feb-23 09:56 38.369924 -108.429223 336 13953ft 214kts
17-Feb-23 09:57 38.425071 -108.457927 336 13953ft 214kts
17-Feb-23 09:58 38.480150 -108.486636 336 14006ft 212kts
17-Feb-23 09:59 38.534905 -108.515232 336 14008ft 214kts
17-Feb-23 10:00 38.590160 -108.544076 335 14009ft 216kts
17-Feb-23 10:01 38.646195 -108.573495 335 14008ft 218kts
17-Feb-23 10:02 38.702423 -108.603008 335 14008ft 219kts
17-Feb-23 10:03 38.758676 -108.632562 335 14003ft 219kts
17-Feb-23 10:04 38.815013 -108.662226 334 14001ft 218kts
17-Feb-23 10:05 38.870967 -108.691767 334 13984ft 218kts
17-Feb-23 10:06 38.927116 -108.721437 334 13982ft 218kts
17-Feb-23 10:07 38.983062 -108.751052 334 13983ft 218kts
17-Feb-23 10:08 39.039252 -108.780836 334 13983ft 219kts
17-Feb-23 10:09 39.072782 -108.839173 289 13983ft 209kts
17-Feb-23 10:10 39.093619 -108.908844 287 13983ft 208kts
17-Feb-23 10:11 39.113778 -108.978897 287 13980ft 208kts
17-Feb-23 10:12 39.133778 -109.048765 287 13980ft 208kts
17-Feb-23 10:13 39.153724 -109.118708 287 13980ft 208kts
17-Feb-23 10:14 39.173622 -109.188683 287 13980ft 208kts
17-Feb-23 10:15 39.193491 -109.258739 287 13975ft 208kts
17-Feb-23 10:16 39.213293 -109.328747 287 13961ft 208kts
17-Feb-23 10:17 39.233082 -109.398887 287 13961ft 208kts
17-Feb-23 10:18 39.252785 -109.468916 286 13965ft 207kts
17-Feb-23 10:19 39.272416 -109.538952 286 13453ft 212kts
17-Feb-23 10:20 39.292115 -109.609321 286 12592ft 198kts
17-Feb-23 10:21 39.309952 -109.673250 285 12069ft 183kts
17-Feb-23 10:22 39.326099 -109.731164 285 12042ft 162kts
17-Feb-23 10:23 39.343055 -109.783738 280 12044ft 154kts
17-Feb-23 10:24 39.357205 -109.835576 285 12045ft 153kts
17-Feb-23 10:25 39.371587 -109.886950 284 12045ft 152kts
17-Feb-23 10:26 39.385654 -109.938348 284 12045ft 151kts
17-Feb-23 10:27 39.400413 -109.992785 284 12006ft 176kts
17-Feb-23 10:28 39.417410 -110.055194 285 12002ft 188kts
17-Feb-23 10:29 39.435148 -110.119376 287 12000ft 191kts
17-Feb-23 10:30 39.452717 -110.183504 284 11994ft 183kts
17-Feb-23 10:31 39.468473 -110.243570 284 11997ft 171kts
17-Feb-23 10:32 39.483739 -110.301235 284 11997ft 166kts
17-Feb-23 10:33 39.498240 -110.356101 284 11995ft 156kts
17-Feb-23 10:34 39.511587 -110.406697 283 11995ft 142kts
17-Feb-23 10:35 39.523733 -110.452819 282 11994ft 128kts
17-Feb-23 10:37 39.534324 -110.494512 266 11992ft 114kts
17-Feb-23 10:38 39.512767 -110.521788 211 10843ft 121kts
17-Feb-23 10:39 39.483015 -110.547310 216 9377ft 140kts
17-Feb-23 10:40 39.453719 -110.582670 226 8725ft 141kts
17-Feb-23 10:41 39.432926 -110.619599 235 8689ft 114kts
17-Feb-23 10:42 39.419921 -110.652647 241 8698ft 97kts
17-Feb-23 10:43 39.409342 -110.691219 250 8704ft 125kts
17-Feb-23 10:44 39.403690 -110.736720 261 8700ft 130kts
17-Feb-23 10:45 39.404626 -110.784220 273 8700ft 134kts
17-Feb-23 10:46 39.436760 -110.804095 334 8698ft 141kts
17-Feb-23 10:47 39.476049 -110.811087 14 8397ft 158kts
17-Feb-23 10:48 39.513934 -110.793901 19 7687ft 130kts
17-Feb-23 10:49 39.545675 -110.780279 18 7072ft 116kts
17-Feb-23 10:50 39.576008 -110.767377 19 6449ft 114kts
17-Feb-23 10:51 39.604159 -110.755487 19 5857ft 84kts
17-Feb-23 10:52 39.611260 -110.751558 109 5852ft 7kts
17-Feb-23 10:53 39.610707 -110.750901 289 5853ft 0kts

Navigation Log

Ident Type
Flight plan parsing failed, navigation log unavailable